createdAt,value
2023-05-12T00:00:02.883Z,2.83
2023-05-12T00:02:31.197Z,2.50
2023-05-12T00:04:59.069Z,2.70
2023-05-12T00:07:27.218Z,2.73
2023-05-12T00:09:54.986Z,2.73
2023-05-12T00:12:24.136Z,2.73
2023-05-12T00:14:51.947Z,2.93
2023-05-12T00:17:19.873Z,2.40
2023-05-12T00:19:48.448Z,2.87
2023-05-12T00:22:16.969Z,2.30
2023-05-12T00:24:44.809Z,2.00
2023-05-12T00:27:13.600Z,2.20
2023-05-12T00:29:42.772Z,2.40
2023-05-12T00:32:10.540Z,2.13
2023-05-12T00:34:38.331Z,2.27
2023-05-12T00:37:06.414Z,2.47
2023-05-12T00:39:34.234Z,2.90
2023-05-12T00:42:03.059Z,2.30
2023-05-12T00:44:30.907Z,3.20
2023-05-12T00:47:00.253Z,2.53
2023-05-12T00:49:28.688Z,2.70
2023-05-12T00:51:56.837Z,2.70
2023-05-12T00:54:24.771Z,2.83
2023-05-12T00:56:52.848Z,2.67
2023-05-12T00:59:20.655Z,2.20
2023-05-12T01:01:49.946Z,2.60
2023-05-12T01:04:19.209Z,3.00
2023-05-12T01:06:52.758Z,2.80
2023-05-12T01:09:20.759Z,2.67
2023-05-12T01:11:48.567Z,2.90
2023-05-12T01:14:16.366Z,3.03
2023-05-12T01:16:50.459Z,2.80
2023-05-12T01:19:33.627Z,3.03
2023-05-12T01:22:01.834Z,2.50
2023-05-12T01:24:33.216Z,2.80
2023-05-12T01:27:03.461Z,2.60
2023-05-12T01:29:32.712Z,2.77
2023-05-12T01:32:00.769Z,2.93
2023-05-12T01:34:28.555Z,2.80
2023-05-12T01:36:56.358Z,2.53
2023-05-12T01:39:24.175Z,2.77
2023-05-12T01:41:51.990Z,2.73
2023-05-12T01:44:21.583Z,2.90
2023-05-12T01:46:49.605Z,3.10
2023-05-12T01:49:17.543Z,2.80
2023-05-12T01:51:45.336Z,2.87
2023-05-12T01:54:13.173Z,2.60
2023-05-12T01:56:41.075Z,2.97
2023-05-12T01:59:09.035Z,2.90
2023-05-12T02:01:38.342Z,2.70
2023-05-12T02:04:08.814Z,2.60
2023-05-12T02:06:36.813Z,2.53
2023-05-12T02:09:04.826Z,3.00
2023-05-12T02:11:32.629Z,2.97
2023-05-12T02:14:00.434Z,2.60
2023-05-12T02:16:28.243Z,2.57
2023-05-12T02:18:57.464Z,3.00
2023-05-12T02:21:25.809Z,2.60
2023-05-12T02:23:53.628Z,3.53
2023-05-12T02:26:21.582Z,2.90
2023-05-12T02:28:49.348Z,2.67
2023-05-12T02:31:17.213Z,2.87
2023-05-12T02:33:45.003Z,3.30
2023-05-12T02:36:14.119Z,2.90
2023-05-12T02:38:42.031Z,2.50
2023-05-12T02:41:09.868Z,2.97
2023-05-12T02:43:37.675Z,2.70
2023-05-12T02:46:05.992Z,3.00
2023-05-12T02:48:33.827Z,2.90
2023-05-12T02:51:01.613Z,3.27
2023-05-12T02:53:30.785Z,3.03
2023-05-12T02:55:58.606Z,3.10
2023-05-12T02:58:26.536Z,3.00
2023-05-12T03:01:06.757Z,2.60
2023-05-12T03:03:38.700Z,2.93
2023-05-12T03:06:07.406Z,3.33
2023-05-12T03:08:37.165Z,3.20
2023-05-12T03:11:04.958Z,3.30
2023-05-12T03:13:33.386Z,3.00
2023-05-12T03:16:01.643Z,3.60
2023-05-12T03:18:29.751Z,3.33
2023-05-12T03:20:57.700Z,3.10
2023-05-12T03:23:25.492Z,3.10
2023-05-12T03:25:55.405Z,2.77
2023-05-12T03:28:24.715Z,3.20
2023-05-12T03:30:52.519Z,2.73
2023-05-12T03:33:20.388Z,3.00
2023-05-12T03:35:48.160Z,3.20
2023-05-12T03:38:16.020Z,2.70
2023-05-12T03:40:43.837Z,3.27
2023-05-12T03:43:12.922Z,2.90
2023-05-12T03:45:40.776Z,3.03
2023-05-12T03:48:08.601Z,3.33
2023-05-12T03:50:36.444Z,3.17
2023-05-12T03:53:04.281Z,3.17
2023-05-12T03:55:32.097Z,2.90
2023-05-12T03:57:59.909Z,3.30
2023-05-12T04:00:29.204Z,3.13
2023-05-12T04:02:57.098Z,3.00
2023-05-12T04:05:28.083Z,3.13
2023-05-12T04:07:55.884Z,3.30
2023-05-12T04:10:23.684Z,2.83
2023-05-12T04:12:51.501Z,3.10
2023-05-12T04:15:19.504Z,4.33
2023-05-12T04:17:48.683Z,3.57
2023-05-12T04:20:16.635Z,3.73
2023-05-12T04:22:45.240Z,3.63
2023-05-12T04:25:13.059Z,3.70
2023-05-12T04:27:40.897Z,3.40
2023-05-12T04:30:10.131Z,3.20
2023-05-12T04:32:37.965Z,4.30
2023-05-12T04:35:07.689Z,4.80
2023-05-12T04:37:35.547Z,4.20
2023-05-12T04:40:04.512Z,6.20
2023-05-12T04:42:32.314Z,5.57
2023-05-12T04:45:00.177Z,5.87
2023-05-12T04:47:28.527Z,5.33
2023-05-12T04:49:56.328Z,5.40
2023-05-12T04:52:25.796Z,6.00
2023-05-12T04:54:53.818Z,4.10
2023-05-12T04:57:21.572Z,4.83
2023-05-12T04:59:49.655Z,4.67
2023-05-12T05:02:17.531Z,4.50
2023-05-12T05:04:45.498Z,5.23
2023-05-12T05:07:13.270Z,4.77
2023-05-12T05:09:42.412Z,4.97
2023-05-12T05:12:10.378Z,5.60
2023-05-12T05:14:38.991Z,5.00
2023-05-12T05:17:07.913Z,4.97
2023-05-12T05:19:49.967Z,4.77
2023-05-12T05:22:23.643Z,5.33
2023-05-12T05:24:52.871Z,5.00
2023-05-12T05:27:20.689Z,4.30
2023-05-12T05:29:49.451Z,5.10
2023-05-12T05:32:17.331Z,5.50
2023-05-12T05:34:45.161Z,4.70
2023-05-12T05:37:13.004Z,4.40
2023-05-12T05:39:40.837Z,5.37
2023-05-12T05:42:10.002Z,5.20
2023-05-12T05:44:37.782Z,5.30
2023-05-12T05:47:05.966Z,5.70
2023-05-12T05:49:33.761Z,5.60
2023-05-12T05:52:04.984Z,4.63
2023-05-12T05:54:32.762Z,5.60
2023-05-12T05:57:02.145Z,6.30
2023-05-12T05:59:32.120Z,6.00
2023-05-12T06:02:00.150Z,6.67
2023-05-12T06:04:28.288Z,6.10
2023-05-12T06:06:56.291Z,6.30
2023-05-12T06:09:24.180Z,5.77
2023-05-12T06:11:51.969Z,5.57
2023-05-12T06:14:19.776Z,5.03
2023-05-12T06:16:48.920Z,6.33
2023-05-12T06:19:16.783Z,5.30
2023-05-12T06:21:44.601Z,6.90
2023-05-12T06:24:12.391Z,5.67
2023-05-12T06:26:40.210Z,6.10
2023-05-12T06:29:08.624Z,6.47
2023-05-12T06:31:36.520Z,6.77
2023-05-12T06:34:05.663Z,7.17
2023-05-12T06:36:33.484Z,6.90
2023-05-12T06:39:01.378Z,7.63
2023-05-12T06:41:29.193Z,7.33
2023-05-12T06:43:57.002Z,7.53
2023-05-12T06:46:24.847Z,7.80
2023-05-12T06:48:52.856Z,6.70
2023-05-12T06:51:22.023Z,7.40
2023-05-12T06:53:49.904Z,8.00
2023-05-12T06:56:17.719Z,6.87
2023-05-12T06:58:45.497Z,6.67
2023-05-12T07:01:13.317Z,6.50
2023-05-12T07:03:41.243Z,7.57
2023-05-12T07:06:11.079Z,7.03
2023-05-12T07:08:40.771Z,7.10
2023-05-12T07:11:08.578Z,7.10
2023-05-12T07:13:36.441Z,7.40
2023-05-12T07:16:04.244Z,7.00
2023-05-12T07:18:32.174Z,7.30
2023-05-12T07:20:59.974Z,7.20
2023-05-12T07:23:27.783Z,6.27
2023-05-12T07:25:56.996Z,7.97
2023-05-12T07:28:24.986Z,7.20
2023-05-12T07:30:52.928Z,8.40
2023-05-12T07:33:20.793Z,7.33
2023-05-12T07:35:48.587Z,7.30
2023-05-12T07:38:16.405Z,7.10
2023-05-12T07:40:44.681Z,7.30
2023-05-12T07:43:13.870Z,8.47
2023-05-12T07:45:41.722Z,7.10
2023-05-12T07:48:10.718Z,7.73
2023-05-12T07:50:39.351Z,7.77
2023-05-12T07:53:07.314Z,8.30
2023-05-12T07:55:35.338Z,7.27
2023-05-12T07:58:03.378Z,9.47
2023-05-12T08:00:32.487Z,8.50
2023-05-12T08:03:00.420Z,9.63
2023-05-12T08:05:28.723Z,9.17
2023-05-12T08:07:56.520Z,9.30
2023-05-12T08:10:27.342Z,8.40
2023-05-12T08:12:55.127Z,8.93
2023-05-12T08:15:22.975Z,7.93
2023-05-12T08:17:52.319Z,9.33
2023-05-12T08:20:20.315Z,8.80
2023-05-12T08:22:48.344Z,8.57
2023-05-12T08:25:16.131Z,7.50
2023-05-12T08:27:43.909Z,8.93
2023-05-12T08:30:12.632Z,8.00
2023-05-12T08:32:40.645Z,7.80
2023-05-12T08:35:09.924Z,8.27
2023-05-12T08:37:37.884Z,7.30
2023-05-12T08:40:12.968Z,6.93
2023-05-12T08:42:45.342Z,7.33
2023-05-12T08:45:13.431Z,7.27
2023-05-12T08:47:43.639Z,6.40
2023-05-12T08:50:15.306Z,6.90
2023-05-12T08:52:43.253Z,6.97
2023-05-12T08:55:11.777Z,6.27
2023-05-12T08:57:45.337Z,6.63
2023-05-12T09:00:14.553Z,5.97
2023-05-12T09:02:52.776Z,6.63
2023-05-12T09:05:24.133Z,6.83
2023-05-12T09:07:54.330Z,7.33
2023-05-12T09:10:34.213Z,6.70
2023-05-12T09:13:05.790Z,8.60
2023-05-12T09:15:39.936Z,7.40
2023-05-12T09:18:07.886Z,8.30
2023-05-12T09:20:37.321Z,9.40
2023-05-12T09:23:15.745Z,9.97
2023-05-12T09:25:43.920Z,8.90
2023-05-12T09:28:11.819Z,9.60
2023-05-12T09:30:42.229Z,10.77
2023-05-12T09:33:10.973Z,10.47
2023-05-12T09:35:44.392Z,9.43
2023-05-12T09:38:13.763Z,9.50
2023-05-12T09:40:43.004Z,9.33
2023-05-12T09:43:14.345Z,9.43
2023-05-12T09:45:43.975Z,8.23
2023-05-12T09:48:13.007Z,9.77
2023-05-12T09:50:47.770Z,8.37
2023-05-12T09:53:17.723Z,8.60
2023-05-12T09:55:46.420Z,8.87
2023-05-12T09:58:16.897Z,8.83
2023-05-12T10:01:12.602Z,8.07
2023-05-12T10:03:36.211Z,7.43
2023-05-12T10:06:08.078Z,7.50
2023-05-12T10:08:41.425Z,6.30
2023-05-12T10:11:10.477Z,6.60
2023-05-12T10:13:39.683Z,6.03
2023-05-12T10:16:08.590Z,6.93
2023-05-12T10:18:36.594Z,7.07
2023-05-12T10:21:08.147Z,6.50
2023-05-12T10:23:38.265Z,6.70
2023-05-12T10:26:07.281Z,5.80
2023-05-12T10:28:35.067Z,4.93
2023-05-12T10:31:04.343Z,6.20
2023-05-12T10:33:32.370Z,6.00
2023-05-12T10:36:00.222Z,5.30
2023-05-12T10:38:37.322Z,5.57
2023-05-12T10:41:07.779Z,5.60
2023-05-12T10:43:41.898Z,6.50
2023-05-12T10:46:11.034Z,5.43
2023-05-12T10:48:50.887Z,5.90
2023-05-12T10:51:21.731Z,6.00
2023-05-12T10:53:54.974Z,5.90
2023-05-12T10:56:24.553Z,6.30
2023-05-12T10:59:17.334Z,6.57
2023-05-12T11:01:59.061Z,6.20
2023-05-12T11:04:44.902Z,6.00
2023-05-12T11:07:15.044Z,5.80
2023-05-12T11:09:57.582Z,5.70
2023-05-12T11:12:31.734Z,6.00
2023-05-12T11:15:01.458Z,6.50
2023-05-12T11:17:29.681Z,6.20
2023-05-12T11:19:58.181Z,6.40
2023-05-12T11:22:26.165Z,6.30
2023-05-12T11:24:55.458Z,6.73
2023-05-12T11:27:24.335Z,6.50
2023-05-12T11:29:59.280Z,5.87
2023-05-12T11:32:27.387Z,6.10
2023-05-12T11:34:55.301Z,6.20
2023-05-12T11:37:23.931Z,5.20
2023-05-12T11:39:52.918Z,5.23
2023-05-12T11:42:25.092Z,5.07
2023-05-12T11:44:55.379Z,4.63
2023-05-12T11:47:23.447Z,5.20
2023-05-12T11:49:52.848Z,5.50
2023-05-12T11:52:22.144Z,5.37
2023-05-12T11:54:51.458Z,5.50
2023-05-12T11:57:31.626Z,5.40
2023-05-12T12:00:00.759Z,6.17
2023-05-12T12:02:29.192Z,5.53
2023-05-12T12:04:57.624Z,5.60
2023-05-12T12:07:33.099Z,4.90
2023-05-12T12:10:12.215Z,4.90
2023-05-12T12:12:41.600Z,4.50
2023-05-12T12:15:10.476Z,4.30
2023-05-12T12:17:38.599Z,4.70
2023-05-12T12:20:07.843Z,4.90
2023-05-12T12:22:35.862Z,3.83
2023-05-12T12:25:03.946Z,4.50
2023-05-12T12:27:31.836Z,4.20
2023-05-12T12:30:00.991Z,4.17
2023-05-12T12:32:29.088Z,3.80
2023-05-12T12:34:59.533Z,3.20
2023-05-12T12:37:27.343Z,3.77
2023-05-12T12:39:55.922Z,3.90
2023-05-12T12:42:23.728Z,4.07
2023-05-12T12:44:51.643Z,3.40
2023-05-12T12:47:20.894Z,3.10
2023-05-12T12:49:48.682Z,3.90
2023-05-12T12:52:16.480Z,3.80
2023-05-12T12:54:44.359Z,3.57
2023-05-12T12:57:12.168Z,3.43
2023-05-12T12:59:39.968Z,3.63
2023-05-12T13:02:09.129Z,3.63
2023-05-12T13:04:39.092Z,3.57
2023-05-12T13:07:07.299Z,4.43
2023-05-12T13:09:35.123Z,5.43
2023-05-12T13:12:03.047Z,5.03
2023-05-12T13:14:30.900Z,4.73
2023-05-12T13:16:58.839Z,5.03
2023-05-12T13:19:27.422Z,4.17
2023-05-12T13:21:56.581Z,3.87
2023-05-12T13:24:24.458Z,3.83
2023-05-12T13:26:52.297Z,3.30
2023-05-12T13:29:20.232Z,3.73
2023-05-12T13:31:48.052Z,3.47
2023-05-12T13:34:16.132Z,3.90
2023-05-12T13:36:43.896Z,3.30
2023-05-12T13:39:13.041Z,4.27
2023-05-12T13:41:40.837Z,4.60
2023-05-12T13:44:08.967Z,3.83
2023-05-12T13:46:36.952Z,3.90
2023-05-12T13:49:04.803Z,4.40
2023-05-12T13:51:32.939Z,5.20
2023-05-12T13:54:00.738Z,5.33
2023-05-12T13:56:29.873Z,5.20
2023-05-12T13:58:58.325Z,5.83
2023-05-12T14:01:26.390Z,5.83
2023-05-12T14:03:54.256Z,4.33
2023-05-12T14:06:22.046Z,2.73
2023-05-12T14:08:49.912Z,2.37
2023-05-12T14:11:18.022Z,2.20
2023-05-12T14:13:47.170Z,2.10
2023-05-12T14:16:15.222Z,2.40
2023-05-12T14:18:43.837Z,2.30
2023-05-12T14:21:11.951Z,2.50
2023-05-12T14:23:39.738Z,2.63
2023-05-12T14:26:09.861Z,2.20
2023-05-12T14:28:38.699Z,2.63
2023-05-12T14:31:07.982Z,2.40
2023-05-12T14:33:35.965Z,2.47
2023-05-12T14:36:08.058Z,2.43
2023-05-12T14:38:36.866Z,2.40
2023-05-12T14:41:05.314Z,2.27
2023-05-12T14:43:33.105Z,3.57
2023-05-12T14:46:02.015Z,3.10
2023-05-12T14:48:31.661Z,3.50
2023-05-12T14:51:00.189Z,3.70
2023-05-12T14:53:27.959Z,3.90
2023-05-12T14:55:55.750Z,4.20
2023-05-12T14:58:24.184Z,5.00
2023-05-12T15:00:52.639Z,3.40
2023-05-12T15:03:21.616Z,3.13
2023-05-12T15:08:22.152Z,3.23
2023-05-12T15:10:49.981Z,3.73
2023-05-12T15:13:20.321Z,4.00
2023-05-12T15:15:48.414Z,4.13
2023-05-12T15:18:16.317Z,3.93
2023-05-12T15:20:44.193Z,3.30
2023-05-12T15:23:13.366Z,2.53
2023-05-12T15:25:41.408Z,3.13
2023-05-12T15:28:09.509Z,2.57
2023-05-12T15:30:37.278Z,2.97
2023-05-12T15:33:06.199Z,2.10
2023-05-12T15:35:34.071Z,2.67
2023-05-12T15:38:01.964Z,2.57
2023-05-12T15:40:31.252Z,2.73
2023-05-12T15:42:59.250Z,2.40
2023-05-12T15:45:27.090Z,2.50
2023-05-12T15:47:56.254Z,3.30
2023-05-12T15:50:24.557Z,3.00
2023-05-12T15:52:52.357Z,2.60
2023-05-12T15:55:20.636Z,2.57
2023-05-12T15:57:50.153Z,3.20
2023-05-12T16:00:19.432Z,2.90
2023-05-12T16:02:47.431Z,2.50
2023-05-12T16:05:16.165Z,3.47
2023-05-12T16:07:44.066Z,3.03
2023-05-12T16:10:11.977Z,2.70
2023-05-12T16:12:40.037Z,3.00
2023-05-12T16:15:11.447Z,3.30
2023-05-12T16:17:39.339Z,2.87
2023-05-12T16:20:09.147Z,2.80
2023-05-12T16:22:37.592Z,2.70
2023-05-12T16:25:06.288Z,2.70
2023-05-12T16:27:35.605Z,3.17
2023-05-12T16:30:03.788Z,3.33
2023-05-12T16:32:32.895Z,2.37
2023-05-12T16:35:00.833Z,2.60
2023-05-12T16:37:28.777Z,2.27
2023-05-12T16:39:56.564Z,2.57
2023-05-12T16:42:24.798Z,2.20
2023-05-12T16:44:54.517Z,2.80
2023-05-12T16:47:22.680Z,2.60
2023-05-12T16:49:54.729Z,2.50
2023-05-12T16:52:22.526Z,2.33
2023-05-12T16:54:50.684Z,2.47
2023-05-12T16:57:18.641Z,2.67
2023-05-12T16:59:48.080Z,2.70
2023-05-12T17:02:15.876Z,2.30
2023-05-12T17:04:44.615Z,3.30
2023-05-12T17:07:13.782Z,2.73
2023-05-12T17:09:41.712Z,2.50
2023-05-12T17:12:10.805Z,3.30
2023-05-12T17:14:38.610Z,2.77
2023-05-12T17:17:06.618Z,3.27
2023-05-12T17:19:34.679Z,3.40
2023-05-12T17:22:02.710Z,3.13
2023-05-12T17:24:32.364Z,3.00
2023-05-12T17:27:00.247Z,3.00
2023-05-12T17:29:28.395Z,2.60
2023-05-12T17:31:56.644Z,3.10
2023-05-12T17:34:24.422Z,3.50
2023-05-12T17:36:52.186Z,3.47
2023-05-12T17:39:19.971Z,3.47
2023-05-12T17:41:49.186Z,3.77
2023-05-12T17:44:17.080Z,4.30
2023-05-12T17:46:44.908Z,4.37
2023-05-12T17:49:12.762Z,4.30
2023-05-12T17:51:41.638Z,3.90
2023-05-12T17:54:09.384Z,4.40
2023-05-12T17:56:37.458Z,4.00
2023-05-12T17:59:06.877Z,4.83
2023-05-12T18:01:34.791Z,4.77
2023-05-12T18:04:02.627Z,6.87
2023-05-12T18:06:30.998Z,11.10
2023-05-12T18:08:58.773Z,12.70
2023-05-12T18:11:26.560Z,11.10
2023-05-12T18:13:54.344Z,9.20
2023-05-12T18:16:29.002Z,6.00
2023-05-12T18:18:57.638Z,5.23
2023-05-12T18:21:25.892Z,4.80
2023-05-12T18:23:53.707Z,5.10
2023-05-12T18:26:21.782Z,5.00
2023-05-12T18:28:49.673Z,4.37
2023-05-12T18:31:19.444Z,5.40
2023-05-12T18:33:49.508Z,4.77
2023-05-12T18:36:18.557Z,4.90
2023-05-12T18:38:47.232Z,5.17
2023-05-12T18:41:15.218Z,5.43
2023-05-12T18:43:44.079Z,5.00
2023-05-12T18:46:12.460Z,5.33
2023-05-12T18:48:40.460Z,5.30
2023-05-12T18:51:09.793Z,5.50
2023-05-12T18:53:37.623Z,6.30
2023-05-12T18:56:05.665Z,5.90
2023-05-12T18:58:33.559Z,5.27
2023-05-12T19:01:02.044Z,6.23
2023-05-12T19:03:31.044Z,5.63
2023-05-12T19:05:58.973Z,6.10
2023-05-12T19:08:28.119Z,5.73
2023-05-12T19:10:56.324Z,6.43
2023-05-12T19:13:24.141Z,5.70
2023-05-12T19:15:51.928Z,8.07
2023-05-12T19:18:19.991Z,7.67
2023-05-12T19:20:48.115Z,5.90
2023-05-12T19:23:16.088Z,5.77
2023-05-12T19:25:45.423Z,5.70
2023-05-12T19:28:13.177Z,6.27
2023-05-12T19:30:40.974Z,8.20
2023-05-12T19:33:08.848Z,8.03
2023-05-12T19:35:36.684Z,8.90
2023-05-12T19:38:04.432Z,8.93
2023-05-12T19:40:32.868Z,10.00
2023-05-12T19:43:02.030Z,11.30
2023-05-12T19:45:30.210Z,10.40
2023-05-12T19:47:58.271Z,10.97
2023-05-12T19:50:26.359Z,10.90
2023-05-12T19:52:54.135Z,7.30
2023-05-12T19:55:22.246Z,5.93
2023-05-12T19:57:51.741Z,8.80
2023-05-12T20:00:22.110Z,8.03
2023-05-12T20:02:50.256Z,6.53
2023-05-12T20:05:18.388Z,6.20
2023-05-12T20:07:46.243Z,6.37
2023-05-12T20:10:13.988Z,6.30
2023-05-12T20:12:41.806Z,5.40
2023-05-12T20:15:10.517Z,4.90
2023-05-12T20:17:39.724Z,6.83
2023-05-12T20:20:10.962Z,5.80
2023-05-12T20:22:38.958Z,4.80
2023-05-12T20:25:07.500Z,4.13
2023-05-12T20:27:35.289Z,3.50
2023-05-12T20:30:03.242Z,3.87
2023-05-12T20:32:31.432Z,4.10
2023-05-12T20:35:00.598Z,3.90
2023-05-12T20:37:28.484Z,3.83
2023-05-12T20:39:56.300Z,3.60
2023-05-12T20:42:24.277Z,4.07
2023-05-12T20:44:52.015Z,4.33
2023-05-12T20:47:19.784Z,4.10
2023-05-12T20:49:47.656Z,4.30
2023-05-12T20:52:16.780Z,4.37
2023-05-12T20:54:44.772Z,4.70
2023-05-12T20:57:12.530Z,5.70
2023-05-12T20:59:40.295Z,4.90
2023-05-12T21:02:08.253Z,4.77
2023-05-12T21:04:36.131Z,4.67
2023-05-12T21:07:04.424Z,4.77
2023-05-12T21:09:33.547Z,4.80
2023-05-12T21:12:02.190Z,4.50
2023-05-12T21:14:29.996Z,4.17
2023-05-12T21:16:57.853Z,3.83
2023-05-12T21:19:25.740Z,3.50
2023-05-12T21:21:53.496Z,4.00
2023-05-12T21:24:21.273Z,4.50
2023-05-12T21:26:50.382Z,3.60
2023-05-12T21:29:18.184Z,3.87
2023-05-12T21:31:47.392Z,4.07
2023-05-12T21:34:15.368Z,3.60
2023-05-12T21:36:43.137Z,3.67
2023-05-12T21:39:10.956Z,3.37
2023-05-12T21:41:39.282Z,3.60
2023-05-12T21:44:10.993Z,4.50
2023-05-12T21:46:39.100Z,4.50
2023-05-12T21:49:06.967Z,4.13
2023-05-12T21:51:34.978Z,3.37
2023-05-12T21:54:02.771Z,3.70
2023-05-12T21:56:30.582Z,4.50
2023-05-12T21:58:58.397Z,3.47
2023-05-12T22:01:27.591Z,3.87
2023-05-12T22:03:55.479Z,3.90
2023-05-12T22:06:23.269Z,3.50
2023-05-12T22:08:51.193Z,3.30
2023-05-12T22:11:19.039Z,3.47
2023-05-12T22:13:46.813Z,3.50
2023-05-12T22:16:14.726Z,3.33
2023-05-12T22:18:44.271Z,3.97
2023-05-12T22:21:12.617Z,3.77
2023-05-12T22:23:41.768Z,3.60
2023-05-12T22:26:09.837Z,4.47
2023-05-12T22:28:37.732Z,4.60
2023-05-12T22:31:05.579Z,3.73
2023-05-12T22:33:33.470Z,3.83
2023-05-12T22:36:02.588Z,3.20
2023-05-12T22:41:12.165Z,3.30
2023-05-12T22:43:40.082Z,3.07
2023-05-12T22:46:09.574Z,3.77
2023-05-12T22:48:39.506Z,3.20
2023-05-12T22:51:08.926Z,3.43
2023-05-12T22:53:36.857Z,3.17
2023-05-12T22:56:04.707Z,3.60
2023-05-12T22:58:32.472Z,3.73
2023-05-12T23:01:01.841Z,3.70
2023-05-12T23:03:29.698Z,3.83
2023-05-12T23:05:57.485Z,4.30
2023-05-12T23:08:26.623Z,3.13
2023-05-12T23:10:54.384Z,2.80
2023-05-12T23:13:22.292Z,4.03
2023-05-12T23:15:50.043Z,3.93
2023-05-12T23:18:19.324Z,3.43
2023-05-12T23:20:47.092Z,3.97
2023-05-12T23:23:14.850Z,3.40
2023-05-12T23:25:43.989Z,3.70
2023-05-12T23:28:11.747Z,3.83
2023-05-12T23:30:39.733Z,3.10
2023-05-12T23:33:07.686Z,3.33
2023-05-12T23:35:35.635Z,3.30
2023-05-12T23:38:03.428Z,3.60
2023-05-12T23:40:33.361Z,3.73
2023-05-12T23:43:02.543Z,2.90
2023-05-12T23:45:30.403Z,3.10
2023-05-12T23:47:58.364Z,3.40
2023-05-12T23:50:26.280Z,2.90
2023-05-12T23:52:54.564Z,3.20
2023-05-12T23:55:22.473Z,3.53
2023-05-12T23:57:50.516Z,3.30
